Time;durP1;ratioP1;P1;durP2;ratioP2;P2;SDS_P1;SDS_P2;PMS_P1;PMS_P2;Temp;Humidity;BMP_temperature;BMP_pressure;BME280_temperature;BME280_humidity;BME280_pressure;Samples;Min_cycle;Max_cycle;Signal;HPM_P1;HPM_P2
2023/10/03 00:00:54;;;;;;;30.30;18.25;;;;;;;;;;5070077;28;20120;-64
2023/10/03 00:03:19;;;;;;;34.00;17.30;;;;;;;;;;5071823;28;20032;-62
2023/10/03 00:05:46;;;;;;;29.17;18.75;;;;;;;;;;5070309;28;20526;-62
2023/10/03 00:08:11;;;;;;;30.67;15.15;;;;;;;;;;5070160;28;20032;-62
2023/10/03 00:10:38;;;;;;;32.17;18.50;;;;;;;;;;5070378;28;20033;-62
2023/10/03 00:13:07;;;;;;;33.33;20.88;;;;;;;;;;5071442;28;20510;-62
2023/10/03 00:15:32;;;;;;;26.90;17.85;;;;;;;;;;5070349;28;20048;-62
2023/10/03 00:17:58;;;;;;;31.42;16.60;;;;;;;;;;5071319;28;20825;-62
2023/10/03 00:20:23;;;;;;;49.70;19.52;;;;;;;;;;5070528;28;20462;-62
2023/10/03 00:22:49;;;;;;;38.03;16.75;;;;;;;;;;5070904;28;20032;-62
2023/10/03 00:25:18;;;;;;;27.55;16.60;;;;;;;;;;5070487;28;20042;-62
2023/10/03 00:27:45;;;;;;;35.60;18.17;;;;;;;;;;5071591;28;20047;-62
2023/10/03 00:30:11;;;;;;;34.03;17.73;;;;;;;;;;5069939;28;20380;-62
2023/10/03 00:32:37;;;;;;;35.67;18.13;;;;;;;;;;5071706;28;20026;-62
2023/10/03 00:35:02;;;;;;;36.20;17.48;;;;;;;;;;5069319;28;20052;-62
2023/10/03 00:37:29;;;;;;;36.58;20.10;;;;;;;;;;5071045;28;20123;-62
2023/10/03 00:39:57;;;;;;;29.25;17.50;;;;;;;;;;5069754;28;20050;-62
2023/10/03 00:42:22;;;;;;;25.97;16.83;;;;;;;;;;5071522;28;20027;-62
2023/10/03 00:44:47;;;;;;;29.05;16.67;;;;;;;;;;5070316;28;20526;-62
2023/10/03 00:47:14;;;;;;;33.80;19.58;;;;;;;;;;5049469;28;20060;-62
2023/10/03 00:49:40;;;;;;;29.58;16.60;;;;;;;;;;5051127;28;20013;-62
2023/10/03 00:52:06;;;;;;;31.33;19.98;;;;;;;;;;5049412;28;20128;-61
2023/10/03 00:54:32;;;;;;;34.47;18.10;;;;;;;;;;5049898;28;20096;-61
2023/10/03 00:56:57;;;;;;;33.25;19.13;;;;;;;;;;5067215;28;20024;-61
2023/10/03 00:59:22;;;;;;;35.20;18.27;;;;;;;;;;5070601;28;20024;-61
2023/10/03 01:01:49;;;;;;;36.33;19.67;;;;;;;;;;5068849;28;20074;-61
2023/10/03 01:04:19;;;;;;;30.10;18.08;;;;;;;;;;5070752;28;20529;-62
2023/10/03 01:06:45;;;;;;;31.48;19.38;;;;;;;;;;5068718;28;20488;-62
2023/10/03 01:09:19;;;;;;;36.63;19.00;;;;;;;;;;5070780;28;20020;-63
2023/10/03 01:11:47;;;;;;;35.22;20.08;;;;;;;;;;5068944;28;20036;-62
2023/10/03 01:14:15;;;;;;;28.92;18.02;;;;;;;;;;5070443;28;20024;-59
2023/10/03 01:16:41;;;;;;;38.72;19.73;;;;;;;;;;5068535;28;20511;-58
2023/10/03 01:19:20;;;;;;;33.47;19.30;;;;;;;;;;5071029;28;20024;-58
2023/10/03 01:21:47;;;;;;;31.90;19.83;;;;;;;;;;5068429;28;20630;-58
2023/10/03 01:24:20;;;;;;;29.70;18.98;;;;;;;;;;5070817;28;20039;-58
2023/10/03 01:26:46;;;;;;;33.42;19.98;;;;;;;;;;5068513;28;20495;-58
2023/10/03 01:29:11;;;;;;;34.92;20.45;;;;;;;;;;5070099;28;20021;-58
2023/10/03 01:31:36;;;;;;;34.53;20.00;;;;;;;;;;5068810;28;20561;-58
2023/10/03 01:34:01;;;;;;;37.00;19.23;;;;;;;;;;5069862;28;20503;-58
2023/10/03 01:36:26;;;;;;;34.73;18.87;;;;;;;;;;5068568;28;20033;-58
2023/10/03 01:38:52;;;;;;;39.57;21.13;;;;;;;;;;5068921;28;20074;-57
2023/10/03 01:41:18;;;;;;;33.67;19.10;;;;;;;;;;5068971;28;20536;-57
2023/10/03 01:43:43;;;;;;;36.83;19.10;;;;;;;;;;5069819;28;20032;-56
2023/10/03 01:46:12;;;;;;;33.33;19.80;;;;;;;;;;5068733;28;20040;-58
2023/10/03 01:48:37;;;;;;;44.17;25.25;;;;;;;;;;5070443;28;20438;-58
2023/10/03 01:51:03;;;;;;;34.00;18.60;;;;;;;;;;5068194;28;20119;-59
2023/10/03 01:53:29;;;;;;;39.08;20.10;;;;;;;;;;5070046;28;20470;-59
2023/10/03 01:55:54;;;;;;;27.05;19.00;;;;;;;;;;5068589;28;20054;-60
2023/10/03 01:58:21;;;;;;;34.00;18.57;;;;;;;;;;5069856;28;20108;-59
2023/10/03 02:00:48;;;;;;;38.60;21.58;;;;;;;;;;5066360;28;20048;-60
2023/10/03 02:03:13;;;;;;;36.50;18.98;;;;;;;;;;5070223;28;20035;-59
2023/10/03 02:05:42;;;;;;;35.80;20.70;;;;;;;;;;5068987;28;20045;-61
2023/10/03 02:08:10;;;;;;;42.38;22.30;;;;;;;;;;5074553;28;20024;-61
2023/10/03 02:10:35;;;;;;;35.90;18.38;;;;;;;;;;5072960;28;20036;-61
2023/10/03 02:13:12;;;;;;;43.97;21.33;;;;;;;;;;5073281;28;20020;-61
2023/10/03 02:15:38;;;;;;;35.33;19.60;;;;;;;;;;5072946;28;20389;-61
2023/10/03 02:18:05;;;;;;;37.85;21.05;;;;;;;;;;5074088;28;20027;-60
2023/10/03 02:20:31;;;;;;;35.60;18.10;;;;;;;;;;5072451;28;20037;-71
2023/10/03 02:22:57;;;;;;;33.00;18.13;;;;;;;;;;5073587;28;20027;-59
2023/10/03 02:25:26;;;;;;;39.78;21.33;;;;;;;;;;5072770;28;20045;-60
2023/10/03 02:27:53;;;;;;;39.58;20.20;;;;;;;;;;5073150;28;20025;-59
2023/10/03 02:30:27;;;;;;;40.65;18.42;;;;;;;;;;5072315;28;20043;-59
2023/10/03 02:32:57;;;;;;;38.10;20.20;;;;;;;;;;5073251;28;20056;-59
2023/10/03 02:35:23;;;;;;;42.90;22.13;;;;;;;;;;5070456;28;20032;-59
2023/10/03 02:37:49;;;;;;;38.17;20.58;;;;;;;;;;5073496;28;20374;-69
2023/10/03 02:40:15;;;;;;;34.00;19.15;;;;;;;;;;5072053;28;20043;-62
2023/10/03 02:42:40;;;;;;;37.53;21.02;;;;;;;;;;5072837;28;20380;-60
2023/10/03 02:45:06;;;;;;;35.73;20.63;;;;;;;;;;5071908;28;20017;-59
2023/10/03 02:47:31;;;;;;;34.22;18.67;;;;;;;;;;5073477;28;20036;-59
2023/10/03 02:49:58;;;;;;;31.17;16.10;;;;;;;;;;5071463;28;20074;-58
2023/10/03 02:52:24;;;;;;;34.72;19.08;;;;;;;;;;5073483;28;20082;-59
2023/10/03 02:54:49;;;;;;;39.88;22.67;;;;;;;;;;5072733;28;20455;-59
2023/10/03 02:57:15;;;;;;;34.90;19.40;;;;;;;;;;5071407;28;20063;-59
2023/10/03 02:59:40;;;;;;;37.42;19.48;;;;;;;;;;5073350;28;20472;-59
2023/10/03 03:02:05;;;;;;;35.20;18.63;;;;;;;;;;5071798;28;20067;-69
2023/10/03 03:04:33;;;;;;;32.30;17.23;;;;;;;;;;5072922;28;20207;-60
2023/10/03 03:07:03;;;;;;;31.37;17.67;;;;;;;;;;5071449;28;20158;-58
2023/10/03 03:09:28;;;;;;;32.20;18.90;;;;;;;;;;5073475;28;20430;-56
2023/10/03 03:11:55;;;;;;;35.00;21.52;;;;;;;;;;5070580;28;20032;-59
2023/10/03 03:14:20;;;;;;;30.17;16.65;;;;;;;;;;5073109;28;20028;-61
2023/10/03 03:16:47;;;;;;;35.63;18.70;;;;;;;;;;5070656;28;20045;-56
2023/10/03 03:19:14;;;;;;;33.75;17.27;;;;;;;;;;5072377;28;20029;-57
2023/10/03 03:21:40;;;;;;;32.20;17.08;;;;;;;;;;5071090;28;20055;-60
2023/10/03 03:24:09;;;;;;;29.92;16.83;;;;;;;;;;5072277;28;20459;-60
2023/10/03 03:26:39;;;;;;;30.63;18.25;;;;;;;;;;5070382;28;20044;-60
2023/10/03 03:29:20;;;;;;;37.05;19.27;;;;;;;;;;5072884;28;20009;-60
2023/10/03 03:31:46;;;;;;;34.70;17.27;;;;;;;;;;5070795;28;20399;-58
2023/10/03 03:34:11;;;;;;;39.72;21.50;;;;;;;;;;5071948;28;20045;-58
2023/10/03 03:36:38;;;;;;;33.23;17.80;;;;;;;;;;5071188;28;20403;-58
2023/10/03 03:39:05;;;;;;;30.88;18.33;;;;;;;;;;5072930;28;20103;-58
2023/10/03 03:41:30;;;;;;;29.48;16.63;;;;;;;;;;5070695;28;20028;-59
2023/10/03 03:43:56;;;;;;;33.63;19.33;;;;;;;;;;5072130;28;20043;-58
2023/10/03 03:46:21;;;;;;;33.53;15.95;;;;;;;;;;5070702;28;20048;-60
2023/10/03 03:48:46;;;;;;;27.55;14.88;;;;;;;;;;5071766;28;20403;-57
2023/10/03 03:51:12;;;;;;;33.33;18.60;;;;;;;;;;5070840;28;20067;-60
2023/10/03 03:53:38;;;;;;;33.15;15.60;;;;;;;;;;5072103;28;20013;-69
2023/10/03 03:56:07;;;;;;;27.50;15.30;;;;;;;;;;5070312;28;20056;-59
2023/10/03 03:58:33;;;;;;;33.95;18.45;;;;;;;;;;5071075;28;20151;-58
2023/10/03 04:01:00;;;;;;;31.85;15.52;;;;;;;;;;5069727;28;20068;-58
2023/10/03 04:03:28;;;;;;;29.05;15.05;;;;;;;;;;5069294;28;20032;-59
2023/10/03 04:05:57;;;;;;;30.00;17.35;;;;;;;;;;5051269;28;20033;-57
2023/10/03 04:08:23;;;;;;;38.50;17.33;;;;;;;;;;5055866;28;20021;-55
2023/10/03 04:10:49;;;;;;;28.40;14.43;;;;;;;;;;5053062;28;20033;-54
2023/10/03 04:13:16;;;;;;;43.17;17.83;;;;;;;;;;5052122;28;20050;-56
2023/10/03 04:15:44;;;;;;;23.93;13.43;;;;;;;;;;5057284;28;20522;-55
2023/10/03 04:18:10;;;;;;;30.45;17.17;;;;;;;;;;5055060;28;20070;-58
2023/10/03 04:20:35;;;;;;;29.33;14.85;;;;;;;;;;5050199;28;20157;-57
2023/10/03 04:23:03;;;;;;;35.13;18.42;;;;;;;;;;5051455;28;20029;-48
2023/10/03 04:25:28;;;;;;;28.60;16.85;;;;;;;;;;5049658;28;20182;-48
2023/10/03 04:27:54;;;;;;;29.98;15.30;;;;;;;;;;5067581;28;20470;-49
2023/10/03 04:30:21;;;;;;;30.23;15.82;;;;;;;;;;5070110;28;20086;-51
2023/10/03 04:32:47;;;;;;;36.05;17.90;;;;;;;;;;5070085;28;20021;-50
2023/10/03 04:35:13;;;;;;;27.33;15.23;;;;;;;;;;5069324;28;20051;-51
2023/10/03 04:37:41;;;;;;;30.42;14.45;;;;;;;;;;5071257;28;20146;-46
2023/10/03 04:40:07;;;;;;;26.75;14.73;;;;;;;;;;5069680;28;20024;-52
2023/10/03 04:42:32;;;;;;;30.63;16.08;;;;;;;;;;5071405;28;20120;-51
2023/10/03 04:44:58;;;;;;;26.45;15.23;;;;;;;;;;5069714;28;20674;-49
2023/10/03 04:47:24;;;;;;;30.20;16.65;;;;;;;;;;5071069;28;20008;-50
2023/10/03 04:49:49;;;;;;;33.22;15.18;;;;;;;;;;5070705;28;20426;-51
2023/10/03 04:52:15;;;;;;;30.45;16.83;;;;;;;;;;5069775;28;20028;-49
2023/10/03 04:54:40;;;;;;;22.13;14.80;;;;;;;;;;5071072;28;20017;-52
2023/10/03 04:57:05;;;;;;;24.15;16.58;;;;;;;;;;5069397;28;20480;-51
2023/10/03 04:59:30;;;;;;;21.85;13.30;;;;;;;;;;5070783;28;20103;-49
2023/10/03 05:01:55;;;;;;;30.85;15.02;;;;;;;;;;5069188;28;20044;-49
2023/10/03 05:04:20;;;;;;;34.20;16.23;;;;;;;;;;5057729;28;20071;-48
2023/10/03 05:06:47;;;;;;;23.08;14.43;;;;;;;;;;5055044;28;20033;-54
2023/10/03 05:09:12;;;;;;;30.75;15.25;;;;;;;;;;5059284;28;20020;-51
2023/10/03 05:11:37;;;;;;;23.03;12.87;;;;;;;;;;5054962;28;20036;-49
2023/10/03 05:14:04;;;;;;;33.33;14.70;;;;;;;;;;5058586;28;20016;-52
2023/10/03 05:16:29;;;;;;;28.63;16.95;;;;;;;;;;5056464;28;20040;-50
2023/10/03 05:18:55;;;;;;;25.92;14.50;;;;;;;;;;5061823;28;20024;-49
2023/10/03 05:21:20;;;;;;;26.70;14.20;;;;;;;;;;5058153;28;20055;-52
2023/10/03 05:23:46;;;;;;;33.00;17.67;;;;;;;;;;5060590;28;20487;-49
2023/10/03 05:26:11;;;;;;;21.02;12.02;;;;;;;;;;5060215;28;20042;-50
2023/10/03 05:28:38;;;;;;;23.27;12.05;;;;;;;;;;5061457;28;20036;-49
2023/10/03 05:31:04;;;;;;;22.17;13.38;;;;;;;;;;5056859;28;20503;-52
2023/10/03 05:33:29;;;;;;;31.55;14.32;;;;;;;;;;5069642;28;20119;-52
2023/10/03 05:35:54;;;;;;;26.10;14.77;;;;;;;;;;5068970;28;20482;-56
2023/10/03 05:38:19;;;;;;;29.77;15.27;;;;;;;;;;5070475;28;20025;-51
2023/10/03 05:40:46;;;;;;;24.42;14.65;;;;;;;;;;5067666;28;20459;-52
2023/10/03 05:43:11;;;;;;;26.50;15.15;;;;;;;;;;5068271;28;20035;-49
2023/10/03 05:45:36;;;;;;;25.38;14.75;;;;;;;;;;5068204;28;20036;-51
2023/10/03 05:48:03;;;;;;;19.83;10.67;;;;;;;;;;5069661;28;20017;-48
2023/10/03 05:50:28;;;;;;;23.38;12.48;;;;;;;;;;5067682;28;20020;-49
2023/10/03 05:52:53;;;;;;;17.33;9.80;;;;;;;;;;5069513;28;20013;-48
2023/10/03 05:55:18;;;;;;;17.70;10.07;;;;;;;;;;5068290;28;20035;-48
2023/10/03 05:57:44;;;;;;;19.38;10.18;;;;;;;;;;5070032;28;20099;-49
2023/10/03 06:00:09;;;;;;;26.40;10.20;;;;;;;;;;5065900;28;20040;-49
2023/10/03 06:02:39;;;;;;;16.52;8.75;;;;;;;;;;5068580;28;20033;-52
2023/10/03 06:05:08;;;;;;;17.52;7.70;;;;;;;;;;5068920;28;20016;-50
2023/10/03 06:07:33;;;;;;;13.13;8.30;;;;;;;;;;5068136;28;20143;-48
2023/10/03 06:09:58;;;;;;;18.02;8.30;;;;;;;;;;5068147;28;20699;-51
2023/10/03 06:12:23;;;;;;;20.13;12.10;;;;;;;;;;5070363;28;20063;-51
2023/10/03 06:14:49;;;;;;;10.87;7.37;;;;;;;;;;5069885;28;20472;-51
2023/10/03 06:17:16;;;;;;;17.50;8.40;;;;;;;;;;5068226;28;20462;-48
2023/10/03 06:19:41;;;;;;;13.13;5.70;;;;;;;;;;5069592;28;20042;-49
2023/10/03 06:22:08;;;;;;;16.10;6.47;;;;;;;;;;5068474;28;20041;-50
2023/10/03 06:24:33;;;;;;;11.73;5.40;;;;;;;;;;5069744;28;20048;-50
2023/10/03 06:26:58;;;;;;;10.85;5.40;;;;;;;;;;5068281;28;20491;-49
2023/10/03 06:29:24;;;;;;;16.38;6.00;;;;;;;;;;5069918;28;20012;-51
2023/10/03 06:31:51;;;;;;;14.77;7.17;;;;;;;;;;5067803;28;20538;-50
2023/10/03 06:34:16;;;;;;;11.38;4.60;;;;;;;;;;5069813;28;20037;-60
2023/10/03 06:36:41;;;;;;;7.20;5.38;;;;;;;;;;5068106;28;20120;-60
2023/10/03 06:39:08;;;;;;;10.53;4.67;;;;;;;;;;5069836;28;20021;-60
2023/10/03 06:41:33;;;;;;;7.55;4.32;;;;;;;;;;5068231;28;20548;-60
2023/10/03 06:43:58;;;;;;;7.43;4.60;;;;;;;;;;5069648;28;20391;-60
2023/10/03 06:46:24;;;;;;;13.02;5.95;;;;;;;;;;5068028;28;20036;-60
2023/10/03 06:48:52;;;;;;;13.60;4.93;;;;;;;;;;5069285;28;20059;-60
2023/10/03 06:51:17;;;;;;;8.52;4.50;;;;;;;;;;5068477;28;20037;-59
2023/10/03 06:53:46;;;;;;;6.53;4.83;;;;;;;;;;5072954;28;20009;-60
2023/10/03 06:56:12;;;;;;;10.05;5.32;;;;;;;;;;5072013;28;20407;-60
2023/10/03 06:58:37;;;;;;;13.10;5.35;;;;;;;;;;5072040;28;20012;-60
2023/10/03 07:01:02;;;;;;;8.93;5.03;;;;;;;;;;5071423;28;20048;-69
2023/10/03 07:03:28;;;;;;;8.32;5.55;;;;;;;;;;5073035;28;20093;-60
2023/10/03 07:05:54;;;;;;;6.20;4.05;;;;;;;;;;5070072;28;20043;-59
2023/10/03 07:08:19;;;;;;;14.63;5.75;;;;;;;;;;5072907;28;20024;-59
2023/10/03 07:10:44;;;;;;;14.17;5.57;;;;;;;;;;5071525;28;20460;-58
2023/10/03 07:13:11;;;;;;;12.10;6.10;;;;;;;;;;5072888;28;20021;-60
2023/10/03 07:15:36;;;;;;;8.38;4.70;;;;;;;;;;5071322;28;20040;-59
2023/10/03 07:18:01;;;;;;;5.63;4.35;;;;;;;;;;5072764;28;20543;-59
2023/10/03 07:20:27;;;;;;;7.55;4.00;;;;;;;;;;5071617;28;20029;-60
2023/10/03 07:22:52;;;;;;;15.88;5.35;;;;;;;;;;5072522;28;20028;-60
2023/10/03 07:25:17;;;;;;;7.20;4.13;;;;;;;;;;5071339;28;20036;-61
2023/10/03 07:27:42;;;;;;;6.93;3.55;;;;;;;;;;5072499;28;20024;-60
2023/10/03 07:30:08;;;;;;;9.07;6.00;;;;;;;;;;5071349;28;20056;-60
2023/10/03 07:32:34;;;;;;;6.20;4.43;;;;;;;;;;5072413;28;20021;-60
2023/10/03 07:34:59;;;;;;;6.72;4.80;;;;;;;;;;5070964;28;20080;-59
2023/10/03 07:37:24;;;;;;;10.88;4.85;;;;;;;;;;5072809;28;20016;-73
2023/10/03 07:39:50;;;;;;;8.93;5.50;;;;;;;;;;5072179;28;20020;-60
2023/10/03 07:42:15;;;;;;;11.27;4.60;;;;;;;;;;5071098;28;20443;-60
2023/10/03 07:44:41;;;;;;;6.70;5.30;;;;;;;;;;5072692;28;20043;-59
2023/10/03 07:47:06;;;;;;;6.87;4.17;;;;;;;;;;5070527;28;20119;-60
2023/10/03 07:49:32;;;;;;;8.52;6.25;;;;;;;;;;5072616;28;20024;-60
2023/10/03 07:51:59;;;;;;;11.82;4.85;;;;;;;;;;5070699;28;20040;-60
2023/10/03 07:54:26;;;;;;;12.30;5.88;;;;;;;;;;5071933;28;20105;-60
2023/10/03 07:56:51;;;;;;;6.93;4.78;;;;;;;;;;5070034;28;20198;-60
2023/10/03 07:59:17;;;;;;;9.17;4.77;;;;;;;;;;5070979;28;20578;-59
2023/10/03 08:01:42;;;;;;;9.32;5.35;;;;;;;;;;5070073;28;20442;-59
2023/10/03 08:04:12;;;;;;;7.07;5.53;;;;;;;;;;5071547;28;20078;-59
2023/10/03 08:06:38;;;;;;;10.95;5.47;;;;;;;;;;5070547;28;20495;-59
2023/10/03 08:09:03;;;;;;;12.13;4.82;;;;;;;;;;5071262;28;20020;-59
2023/10/03 08:11:29;;;;;;;7.03;5.30;;;;;;;;;;5070529;28;20036;-60
2023/10/03 08:13:55;;;;;;;10.20;5.63;;;;;;;;;;5071933;28;20016;-60
2023/10/03 08:16:22;;;;;;;13.18;5.75;;;;;;;;;;5069968;28;20039;-64
2023/10/03 08:18:47;;;;;;;17.25;8.65;;;;;;;;;;5070261;28;20023;-60
2023/10/03 08:21:12;;;;;;;12.50;6.10;;;;;;;;;;5070614;28;20033;-60
2023/10/03 08:23:37;;;;;;;11.10;6.13;;;;;;;;;;5071310;28;20032;-60
2023/10/03 08:26:03;;;;;;;13.05;6.80;;;;;;;;;;5069998;28;20117;-60
2023/10/03 08:28:29;;;;;;;11.87;6.47;;;;;;;;;;5071453;28;20036;-60
2023/10/03 08:30:54;;;;;;;12.82;7.40;;;;;;;;;;5069456;28;20044;-60
2023/10/03 08:33:20;;;;;;;11.18;7.70;;;;;;;;;;5071139;28;20013;-69
2023/10/03 08:35:46;;;;;;;15.10;6.88;;;;;;;;;;5068286;28;20033;-60
2023/10/03 08:38:13;;;;;;;12.88;6.47;;;;;;;;;;5069929;28;20020;-60
2023/10/03 08:40:40;;;;;;;10.25;5.03;;;;;;;;;;5069199;28;20052;-60
2023/10/03 08:43:08;;;;;;;8.82;5.22;;;;;;;;;;5070830;28;20123;-60
2023/10/03 08:45:35;;;;;;;15.43;6.05;;;;;;;;;;5063425;28;20043;-60
2023/10/03 08:48:05;;;;;;;17.08;5.32;;;;;;;;;;5068755;28;20028;-60
2023/10/03 08:50:34;;;;;;;15.02;6.97;;;;;;;;;;5069453;28;20036;-60
2023/10/03 08:53:16;;;;;;;11.63;8.07;;;;;;;;;;5070480;28;20471;-60
2023/10/03 08:55:44;;;;;;;7.93;4.68;;;;;;;;;;5069734;28;20094;-60
2023/10/03 08:58:13;;;;;;;10.10;7.10;;;;;;;;;;5071243;28;20056;-60
2023/10/03 09:00:40;;;;;;;;;;;;;;;;;;5069741;28;20511;-60
2023/10/03 09:03:10;;;;;;;7.50;4.93;;;;;;;;;;5071233;28;19943;-59
2023/10/03 09:05:40;;;;;;;8.98;4.80;;;;;;;;;;5069174;28;20040;-58
2023/10/03 09:08:08;;;;;;;11.63;5.75;;;;;;;;;;5070657;28;20016;-58
2023/10/03 09:10:33;;;;;;;13.32;6.10;;;;;;;;;;5069422;28;20484;-58
2023/10/03 09:13:04;;;;;;;10.90;5.85;;;;;;;;;;5070371;28;20024;-59
2023/10/03 09:15:38;;;;;;;7.63;4.47;;;;;;;;;;5068133;28;20055;-59
2023/10/03 09:18:04;;;;;;;4.00;3.33;;;;;;;;;;5070298;28;20586;-59
2023/10/03 09:20:31;;;;;;;10.73;4.60;;;;;;;;;;5069374;28;20124;-59
2023/10/03 09:23:05;;;;;;;5.95;3.90;;;;;;;;;;5070249;28;20351;-58
2023/10/03 09:25:31;;;;;;;10.57;5.20;;;;;;;;;;5069577;28;20476;-59
2023/10/03 09:28:03;;;;;;;7.05;4.57;;;;;;;;;;5070352;28;20055;-59
2023/10/03 09:30:37;;;;;;;14.35;5.43;;;;;;;;;;5068748;28;20039;-59
2023/10/03 09:33:04;;;;;;;8.98;4.70;;;;;;;;;;5070474;28;20428;-60
2023/10/03 09:35:30;;;;;;;9.57;4.13;;;;;;;;;;5067729;28;20419;-59
2023/10/03 09:37:56;;;;;;;16.70;4.80;;;;;;;;;;5070005;28;20035;-59
2023/10/03 09:40:21;;;;;;;7.45;3.70;;;;;;;;;;5069099;28;20033;-59
2023/10/03 09:42:49;;;;;;;5.57;3.25;;;;;;;;;;5068898;28;20547;-59
2023/10/03 09:45:18;;;;;;;9.77;3.55;;;;;;;;;;5068842;28;20033;-59
2023/10/03 09:47:44;;;;;;;3.83;2.40;;;;;;;;;;5070409;28;20120;-59
2023/10/03 09:50:10;;;;;;;10.45;3.42;;;;;;;;;;5068958;28;20019;-59
2023/10/03 09:52:39;;;;;;;4.72;3.65;;;;;;;;;;5070345;28;20013;-59
2023/10/03 09:55:26;;;;;;;3.95;2.53;;;;;;;;;;5068738;28;20066;-62
2023/10/03 09:57:59;;;;;;;6.75;2.30;;;;;;;;;;5070375;28;20074;-60
2023/10/03 10:00:40;;;;;;;3.30;2.42;;;;;;;;;;5068941;28;20036;-60
2023/10/03 10:03:10;;;;;;;4.20;2.65;;;;;;;;;;5069026;28;20487;-60
2023/10/03 10:05:35;;;;;;;5.38;3.03;;;;;;;;;;5068475;28;20043;-61
2023/10/03 10:08:12;;;;;;;3.00;1.80;;;;;;;;;;5069816;28;20012;-62
2023/10/03 10:10:38;;;;;;;3.60;1.52;;;;;;;;;;5059714;28;20033;-63
2023/10/03 10:13:13;;;;;;;3.60;2.70;;;;;;;;;;5048887;28;20017;-60
2023/10/03 10:15:56;;;;;;;4.13;2.10;;;;;;;;;;5054716;28;20124;-60
2023/10/03 10:18:40;;;;;;;5.40;1.40;;;;;;;;;;5068577;28;20383;-61
2023/10/03 10:21:22;;;;;;;8.07;3.03;;;;;;;;;;5067250;28;20037;-63
2023/10/03 10:24:07;;;;;;;2.58;1.38;;;;;;;;;;5066723;28;20009;-60
2023/10/03 10:26:34;;;;;;;8.15;2.75;;;;;;;;;;5066150;28;20044;-60
2023/10/03 10:29:05;;;;;;;9.88;3.25;;;;;;;;;;5054173;28;20029;-60
2023/10/03 10:31:39;;;;;;;4.05;1.45;;;;;;;;;;5065360;28;20041;-61
2023/10/03 10:34:35;;;;;;;4.90;1.70;;;;;;;;;;5072128;28;20045;-65
2023/10/03 10:37:02;;;;;;;5.90;1.42;;;;;;;;;;5066121;28;20453;-61
2023/10/03 10:39:46;;;;;;;5.82;1.48;;;;;;;;;;5071784;28;20489;-61
2023/10/03 10:42:11;;;;;;;3.60;1.75;;;;;;;;;;5071813;28;20039;-61
2023/10/03 10:44:39;;;;;;;2.90;1.25;;;;;;;;;;5073188;28;20029;-60
2023/10/03 10:47:04;;;;;;;5.03;1.98;;;;;;;;;;5071729;28;20041;-60
2023/10/03 10:49:37;;;;;;;4.43;1.00;;;;;;;;;;5073338;28;20066;-60
2023/10/03 10:52:09;;;;;;;4.70;1.83;;;;;;;;;;5070965;28;20028;-60
2023/10/03 10:54:36;;;;;;;1.55;1.10;;;;;;;;;;5073095;28;20451;-63
2023/10/03 10:57:03;;;;;;;6.55;2.40;;;;;;;;;;5071462;28;20043;-60
2023/10/03 10:59:28;;;;;;;9.00;3.33;;;;;;;;;;5072981;28;20016;-58
2023/10/03 11:01:54;;;;;;;7.07;2.13;;;;;;;;;;5054533;28;20044;-58
2023/10/03 11:04:23;;;;;;;3.95;1.45;;;;;;;;;;5053380;28;20488;-59
2023/10/03 11:06:49;;;;;;;3.50;1.45;;;;;;;;;;5050800;28;20500;-59
2023/10/03 11:09:20;;;;;;;7.53;3.00;;;;;;;;;;5053237;28;20096;-59
2023/10/03 11:11:45;;;;;;;4.10;2.55;;;;;;;;;;5051248;28;20081;-59
2023/10/03 11:14:10;;;;;;;3.45;1.38;;;;;;;;;;5050443;28;20371;-59
2023/10/03 11:16:35;;;;;;;3.50;1.42;;;;;;;;;;5065098;28;20044;-59
2023/10/03 11:19:02;;;;;;;2.88;1.27;;;;;;;;;;5070678;28;20031;-59
2023/10/03 11:21:30;;;;;;;4.72;2.80;;;;;;;;;;5055829;28;20037;-59
2023/10/03 11:24:28;;;;;;;1.58;1.48;;;;;;;;;;5051144;28;20024;-59
2023/10/03 11:26:55;;;;;;;2.88;1.30;;;;;;;;;;5038576;28;20122;-59
2023/10/03 11:29:40;;;;;;;7.60;2.00;;;;;;;;;;5052525;28;20020;-58
2023/10/03 11:32:25;;;;;;;2.83;1.08;;;;;;;;;;5051027;28;20037;-59
2023/10/03 11:34:56;;;;;;;2.30;1.10;;;;;;;;;;5050329;28;20041;-58
2023/10/03 11:37:36;;;;;;;2.08;1.50;;;;;;;;;;5052658;28;20023;-59
2023/10/03 11:40:11;;;;;;;1.58;1.02;;;;;;;;;;5049964;28;20020;-59
2023/10/03 11:43:02;;;;;;;2.33;1.05;;;;;;;;;;5052245;28;20017;-59
2023/10/03 11:45:33;;;;;;;5.13;1.40;;;;;;;;;;5050910;28;20116;-59
2023/10/03 11:48:10;;;;;;;1.05;0.90;;;;;;;;;;5051864;28;20028;-59
2023/10/03 11:50:36;;;;;;;2.58;1.00;;;;;;;;;;5050577;28;20103;-59
2023/10/03 11:53:02;;;;;;;3.53;1.70;;;;;;;;;;5051803;28;20013;-58
2023/10/03 11:55:28;;;;;;;2.05;1.63;;;;;;;;;;5050778;28;20063;-58
2023/10/03 11:57:53;;;;;;;7.88;1.90;;;;;;;;;;5051538;28;20092;-59
2023/10/03 12:00:24;;;;;;;5.90;1.05;;;;;;;;;;5050806;28;20112;-58
2023/10/03 12:02:49;;;;;;;1.52;1.20;;;;;;;;;;5051929;28;20104;-58
2023/10/03 12:05:16;;;;;;;3.63;1.67;;;;;;;;;;5050134;28;20029;-59
2023/10/03 12:07:45;;;;;;;1.85;1.00;;;;;;;;;;5051620;28;20048;-58
2023/10/03 12:10:12;;;;;;;2.63;1.48;;;;;;;;;;5050229;28;20476;-61
2023/10/03 12:12:37;;;;;;;4.70;1.58;;;;;;;;;;5051699;28;20068;-58
2023/10/03 12:15:03;;;;;;;8.75;1.48;;;;;;;;;;5050308;28;20067;-58
2023/10/03 12:17:28;;;;;;;5.93;2.53;;;;;;;;;;5051826;28;20029;-58
2023/10/03 12:19:54;;;;;;;2.25;1.20;;;;;;;;;;5049630;28;20341;-58
2023/10/03 12:22:19;;;;;;;2.60;1.27;;;;;;;;;;5051540;28;20021;-58
2023/10/03 12:24:44;;;;;;;2.20;0.98;;;;;;;;;;5051030;28;20024;-59
2023/10/03 12:27:09;;;;;;;1.67;1.03;;;;;;;;;;5048310;28;20431;-59
2023/10/03 12:29:35;;;;;;;4.95;1.83;;;;;;;;;;5048555;28;20053;-58
2023/10/03 12:32:01;;;;;;;2.17;1.10;;;;;;;;;;5049354;28;20036;-58
2023/10/03 12:34:27;;;;;;;3.10;1.10;;;;;;;;;;5049052;28;20052;-59
2023/10/03 12:36:52;;;;;;;1.60;1.10;;;;;;;;;;5047391;28;20045;-58
2023/10/03 12:39:20;;;;;;;2.88;2.00;;;;;;;;;;5049326;28;20032;-60
2023/10/03 12:41:46;;;;;;;4.70;2.05;;;;;;;;;;5048415;28;20044;-61
2023/10/03 12:44:12;;;;;;;1.55;1.00;;;;;;;;;;5051295;28;20040;-60
2023/10/03 12:46:37;;;;;;;2.28;1.40;;;;;;;;;;5049296;28;20532;-60
2023/10/03 12:49:02;;;;;;;1.85;1.40;;;;;;;;;;5050026;28;20043;-60
2023/10/03 12:51:28;;;;;;;3.00;1.57;;;;;;;;;;5049030;28;20500;-57
2023/10/03 12:53:53;;;;;;;5.22;1.25;;;;;;;;;;5050730;28;20032;-58
2023/10/03 12:56:18;;;;;;;4.23;2.33;;;;;;;;;;5048896;28;20452;-58
2023/10/03 12:58:45;;;;;;;8.63;2.05;;;;;;;;;;5050601;28;20028;-59
2023/10/03 13:01:11;;;;;;;5.47;2.97;;;;;;;;;;5049121;28;20044;-59
2023/10/03 13:03:39;;;;;;;10.18;3.03;;;;;;;;;;5050282;28;20024;-59
2023/10/03 13:06:04;;;;;;;5.70;2.80;;;;;;;;;;5048922;28;20124;-59
2023/10/03 13:08:29;;;;;;;11.27;3.77;;;;;;;;;;5050568;28;20113;-59
2023/10/03 13:10:54;;;;;;;2.95;2.42;;;;;;;;;;5048429;28;20033;-59
2023/10/03 13:13:21;;;;;;;6.28;2.80;;;;;;;;;;5050627;28;20520;-59
2023/10/03 13:15:46;;;;;;;7.30;2.35;;;;;;;;;;5048888;28;20399;-59
2023/10/03 13:18:13;;;;;;;8.93;4.23;;;;;;;;;;5050005;28;20024;-59
2023/10/03 13:20:42;;;;;;;4.80;2.63;;;;;;;;;;5048865;28;20475;-59
2023/10/03 13:23:07;;;;;;;8.77;3.25;;;;;;;;;;5050321;28;20032;-58
2023/10/03 13:25:33;;;;;;;6.75;3.22;;;;;;;;;;5053812;28;20436;-59
2023/10/03 13:27:58;;;;;;;9.25;4.65;;;;;;;;;;5069664;28;20021;-59
2023/10/03 13:30:27;;;;;;;7.83;3.03;;;;;;;;;;5068787;28;20028;-59
2023/10/03 13:32:55;;;;;;;7.53;4.43;;;;;;;;;;5069908;28;20446;-59
2023/10/03 13:35:21;;;;;;;7.63;3.72;;;;;;;;;;5068199;28;20040;-60
2023/10/03 13:37:46;;;;;;;12.05;3.90;;;;;;;;;;5070123;28;20021;-59
2023/10/03 13:40:12;;;;;;;10.27;3.35;;;;;;;;;;5068538;28;20116;-59
2023/10/03 13:42:38;;;;;;;7.95;5.07;;;;;;;;;;5058507;28;20088;-59
2023/10/03 13:45:03;;;;;;;16.80;3.72;;;;;;;;;;5046525;28;20028;-59
2023/10/03 13:47:30;;;;;;;10.02;3.35;;;;;;;;;;5049668;28;20087;-59
2023/10/03 13:49:56;;;;;;;9.13;3.67;;;;;;;;;;5047771;28;20491;-59
2023/10/03 13:52:21;;;;;;;7.20;4.93;;;;;;;;;;5049279;28;20051;-63
2023/10/03 13:54:46;;;;;;;13.23;3.83;;;;;;;;;;5049172;28;20051;-59
2023/10/03 13:57:12;;;;;;;10.70;3.15;;;;;;;;;;5047857;28;20033;-59
2023/10/03 13:59:37;;;;;;;12.07;3.25;;;;;;;;;;5050163;28;20021;-59
2023/10/03 14:02:03;;;;;;;7.10;3.40;;;;;;;;;;5047692;28;20091;-59
2023/10/03 14:04:28;;;;;;;12.80;5.20;;;;;;;;;;5049322;28;20484;-64
2023/10/03 14:06:54;;;;;;;14.97;4.47;;;;;;;;;;5047663;28;20479;-59
2023/10/03 14:09:22;;;;;;;9.77;3.40;;;;;;;;;;5049234;28;20798;-60
2023/10/03 14:11:47;;;;;;;10.52;5.10;;;;;;;;;;5047706;28;20029;-63
2023/10/03 14:14:13;;;;;;;8.67;3.37;;;;;;;;;;5049860;28;20052;-59
2023/10/03 14:16:38;;;;;;;6.93;3.72;;;;;;;;;;5048079;28;21022;-59
2023/10/03 14:19:03;;;;;;;5.32;3.00;;;;;;;;;;5048809;28;20029;-59
2023/10/03 14:21:28;;;;;;;12.10;4.27;;;;;;;;;;5048418;28;20056;-59
2023/10/03 14:23:55;;;;;;;8.95;5.82;;;;;;;;;;5049487;28;20029;-59
2023/10/03 14:26:20;;;;;;;13.88;3.85;;;;;;;;;;5047721;28;20090;-64
2023/10/03 14:28:45;;;;;;;16.10;2.97;;;;;;;;;;5049486;28;20529;-59
2023/10/03 14:31:11;;;;;;;8.70;3.28;;;;;;;;;;5048167;28;20041;-59